Time;durP1;ratioP1;P1;durP2;ratioP2;P2;SDS_P1;SDS_P2;PMS_P1;PMS_P2;Temp;Humidity;BMP_temperature;BMP_pressure;BME280_temperature;BME280_humidity;BME280_pressure;Samples;Min_cycle;Max_cycle;Signal;HPM_P1;HPM_P2
2022/09/28 00:00:32;;;;;;;1.73;1.13;;;;;;;8.42;100.00;153521.84;5033267;28;20447;-85
2022/09/28 00:02:59;;;;;;;2.10;1.30;;;;;;;8.42;100.00;153523.16;5044862;28;20435;-86
2022/09/28 00:05:26;;;;;;;1.80;1.40;;;;;;;8.45;100.00;153530.91;5025210;28;20439;-86
2022/09/28 00:07:53;;;;;;;1.70;1.00;;;;;;;8.44;100.00;153528.34;5034406;28;20427;-86
2022/09/28 00:10:21;;;;;;;2.00;1.20;;;;;;;8.46;100.00;153533.53;5035177;28;20777;-87
2022/09/28 00:12:49;;;;;;;1.30;1.07;;;;;;;8.46;100.00;153532.22;5053959;28;20831;-86
2022/09/28 00:15:16;;;;;;;1.87;1.20;;;;;;;8.44;100.00;153528.34;5045655;28;20486;-87
2022/09/28 00:17:43;;;;;;;1.40;0.90;;;;;;;8.51;100.00;153545.13;5038693;28;20457;-87
2022/09/28 00:20:10;;;;;;;2.10;1.37;;;;;;;8.51;100.00;153545.13;5053747;28;20439;-86
2022/09/28 00:22:37;;;;;;;1.30;1.00;;;;;;;8.48;100.00;153538.69;5053588;28;20423;-87
2022/09/28 00:25:05;;;;;;;3.10;1.10;;;;;;;8.46;100.00;153533.53;5020130;28;20493;-87
2022/09/28 00:27:33;;;;;;;1.27;1.03;;;;;;;8.50;100.00;153543.84;5015761;28;20443;-87
2022/09/28 00:30:00;;;;;;;1.50;1.10;;;;;;;8.48;100.00;153538.69;5015985;28;20444;-86
2022/09/28 00:32:27;;;;;;;1.50;1.13;;;;;;;8.50;100.00;153543.84;5023519;28;20479;-87
2022/09/28 00:34:54;;;;;;;1.87;0.90;;;;;;;8.50;100.00;153543.84;5053542;28;20474;-86
2022/09/28 00:37:20;;;;;;;1.40;1.03;;;;;;;8.50;100.00;153542.53;5051918;28;20811;-86
2022/09/28 00:39:48;;;;;;;1.30;1.20;;;;;;;8.50;100.00;153543.84;5052236;28;20432;-87
2022/09/28 00:42:17;;;;;;;1.27;1.00;;;;;;;8.51;100.00;153545.13;5050667;28;20685;-87
2022/09/28 00:44:48;;;;;;;4.13;1.60;;;;;;;8.61;100.00;153569.69;5053732;28;20530;-87
2022/09/28 00:47:31;;;;;;;1.43;1.23;;;;;;;8.61;100.00;153570.97;5035758;28;20851;-87
2022/09/28 00:50:00;;;;;;;1.83;1.20;;;;;;;8.57;100.00;153561.97;5050311;28;20423;-88
2022/09/28 00:52:31;;;;;;;2.13;1.70;;;;;;;8.51;100.00;153545.13;5051629;28;20499;-87
2022/09/28 00:55:00;;;;;;;2.20;1.50;;;;;;;8.49;100.00;153541.28;5034544;28;20429;-88
2022/09/28 00:57:27;;;;;;;1.80;1.30;;;;;;;8.54;100.00;153552.91;5026488;28;20439;-88
2022/09/28 00:59:55;;;;;;;2.40;1.63;;;;;;;8.48;100.00;153538.69;5016465;28;20451;-88
2022/09/28 01:02:22;;;;;;;3.00;1.40;;;;;;;8.49;100.00;153541.28;5033189;28;20485;-88
2022/09/28 01:04:50;;;;;;;1.40;1.10;;;;;;;8.51;100.00;153546.44;5016753;28;20490;-88
2022/09/28 01:07:17;;;;;;;1.90;1.57;;;;;;;8.52;100.00;153549.00;5030667;28;20481;-88
2022/09/28 01:09:44;;;;;;;2.03;1.10;;;;;;;8.55;100.00;153556.75;5019556;28;20478;-88
2022/09/28 01:12:11;;;;;;;2.30;1.07;;;;;;;8.56;100.00;153559.38;5053874;28;20443;-88
2022/09/28 01:14:38;;;;;;;1.87;1.33;;;;;;;8.60;100.00;153567.13;5035925;28;20423;-88
2022/09/28 01:17:12;;;;;;;1.03;0.70;;;;;;;8.60;100.00;153568.44;5024826;28;20456;-87
2022/09/28 01:20:15;;;;;;;1.30;0.90;;;;;;;8.63;100.00;153574.88;5023020;28;20435;-88
2022/09/28 01:23:14;;;;;;;3.10;0.90;;;;;;;8.64;100.00;153577.44;5016249;28;20450;-87
2022/09/28 01:25:46;;;;;;;2.27;1.17;;;;;;;8.63;100.00;153576.13;5000696;28;20451;-87
2022/09/28 01:28:16;;;;;;;1.80;1.00;;;;;;;8.66;100.00;153583.91;4998935;28;20436;-87
2022/09/28 01:30:46;;;;;;;2.67;1.13;;;;;;;8.67;100.00;153585.22;5031589;28;20452;-87
2022/09/28 01:33:16;;;;;;;2.13;1.40;;;;;;;8.69;100.00;153591.66;5015398;28;20490;-87
2022/09/28 01:35:46;;;;;;;1.23;0.90;;;;;;;8.70;100.00;153592.97;5042205;28;20455;-87
2022/09/28 01:38:16;;;;;;;1.10;0.80;;;;;;;8.79;100.00;153616.25;5014968;28;20473;-87
2022/09/28 01:40:43;;;;;;;1.40;0.80;;;;;;;8.76;100.00;153608.50;5011752;28;20459;-87
2022/09/28 01:43:16;;;;;;;2.47;1.30;;;;;;;8.76;100.00;153608.50;5018816;28;20446;-87
2022/09/28 01:45:44;;;;;;;1.70;1.30;;;;;;;8.78;100.00;153613.66;5035129;28;20443;-87
2022/09/28 01:48:14;;;;;;;1.90;1.00;;;;;;;8.82;100.00;153623.97;5035152;28;20451;-87
2022/09/28 01:50:41;;;;;;;2.20;1.00;;;;;;;8.79;100.00;153617.50;5035078;28;20983;-87
2022/09/28 01:53:13;;;;;;;3.33;1.10;;;;;;;8.82;100.00;153623.97;5031613;28;20573;-87
2022/09/28 01:55:42;;;;;;;1.67;0.90;;;;;;;8.89;100.00;153642.13;4998855;28;20550;-87
2022/09/28 01:58:12;;;;;;;2.13;1.23;;;;;;;8.92;100.00;153649.88;5001623;28;20502;-87
2022/09/28 02:00:43;;;;;;;2.27;1.10;;;;;;;8.88;100.00;153639.50;5015535;28;20451;-87
2022/09/28 02:03:13;;;;;;;2.97;1.90;;;;;;;8.91;100.00;153647.28;5016002;28;20523;-87
2022/09/28 02:05:47;;;;;;;1.53;1.17;;;;;;;8.89;100.00;153643.41;5032942;28;20448;-87
2022/09/28 02:08:20;;;;;;;4.97;1.40;;;;;;;8.93;100.00;153653.72;5015158;28;20442;-86
2022/09/28 02:10:52;;;;;;;1.77;1.00;;;;;;;8.94;100.00;153656.34;5015188;28;20447;-87
2022/09/28 02:13:22;;;;;;;6.90;2.17;;;;;;;8.94;100.00;153655.03;5025907;28;20466;-87
2022/09/28 02:15:53;;;;;;;4.00;1.30;;;;;;;8.95;100.00;153657.59;5018267;28;20453;-87
2022/09/28 02:18:20;;;;;;;2.40;1.63;;;;;;;8.96;100.00;153660.19;5018584;28;20443;-87
2022/09/28 02:20:51;;;;;;;3.20;1.30;;;;;;;8.97;100.00;153662.81;5051408;28;20465;-86
2022/09/28 02:23:21;;;;;;;2.50;1.07;;;;;;;8.98;100.00;153666.66;5032685;28;20417;-87
2022/09/28 02:25:51;;;;;;;1.70;1.13;;;;;;;8.99;100.00;153667.97;4998413;28;20443;-86
2022/09/28 02:28:19;;;;;;;2.00;1.30;;;;;;;9.01;100.00;153673.13;4998648;28;20435;-87
2022/09/28 02:30:46;;;;;;;4.20;1.40;;;;;;;9.01;100.00;153673.13;5019506;28;20447;-87
2022/09/28 02:33:19;;;;;;;4.03;1.63;;;;;;;9.00;100.00;153671.81;5034374;28;21069;-87
2022/09/28 02:35:46;;;;;;;3.70;1.57;;;;;;;8.98;100.00;153666.66;5017965;28;20483;-87
2022/09/28 02:38:13;;;;;;;2.83;1.53;;;;;;;9.04;100.00;153680.88;5034412;28;20467;-87
2022/09/28 02:40:40;;;;;;;5.10;1.47;;;;;;;9.03;100.00;153679.59;5017608;28;20892;-87
2022/09/28 02:43:16;;;;;;;2.90;1.70;;;;;;;9.06;100.00;153686.06;5017633;28;20447;-86
2022/09/28 02:45:50;;;;;;;2.17;1.50;;;;;;;9.11;100.00;153698.97;5034127;28;20891;-86
2022/09/28 02:48:28;;;;;;;2.47;1.57;;;;;;;9.07;100.00;153689.97;5008535;28;20804;-87
2022/09/28 02:51:02;;;;;;;2.67;1.43;;;;;;;9.06;100.00;153687.34;5014632;28;20538;-87
2022/09/28 02:53:46;;;;;;;4.10;1.40;;;;;;;9.08;100.00;153691.25;5014757;28;20460;-87
2022/09/28 02:56:24;;;;;;;2.70;1.40;;;;;;;9.09;100.00;153695.13;4998121;28;20564;-87
2022/09/28 02:58:58;;;;;;;3.70;1.10;;;;;;;9.07;100.00;153688.66;5002291;28;20442;-87
2022/09/28 03:01:30;;;;;;;3.80;2.07;;;;;;;9.11;100.00;153698.97;5047179;28;20439;-88
2022/09/28 03:04:04;;;;;;;2.57;1.30;;;;;;;9.13;100.00;153704.19;5034948;28;20423;-88
2022/09/28 03:06:39;;;;;;;2.73;1.20;;;;;;;9.10;100.00;153697.72;5052760;28;20446;-88
2022/09/28 03:09:09;;;;;;;3.20;1.47;;;;;;;9.11;100.00;153698.97;5052776;28;20415;-88
2022/09/28 03:11:39;;;;;;;3.57;1.57;;;;;;;9.13;100.00;153704.19;5034684;28;20443;-88
2022/09/28 03:14:06;;;;;;;2.43;1.63;;;;;;;9.18;100.00;153717.13;5051521;28;20565;-88
2022/09/28 03:16:46;;;;;;;5.17;1.83;;;;;;;9.16;100.00;153711.91;5053788;28;20442;-87
2022/09/28 03:19:16;;;;;;;3.30;1.30;;;;;;;9.15;100.00;153709.34;5054886;28;20478;-88
2022/09/28 03:21:43;;;;;;;1.70;1.00;;;;;;;9.17;100.00;153715.81;5011747;28;20498;-87
2022/09/28 03:24:10;;;;;;;2.90;1.53;;;;;;;9.21;100.00;153724.88;5009173;28;20452;-88
2022/09/28 03:26:37;;;;;;;2.40;1.40;;;;;;;9.18;100.00;153718.41;5018605;28;20451;-89
2022/09/28 03:29:04;;;;;;;4.23;1.37;;;;;;;9.16;100.00;153711.91;5018617;28;20452;-88
2022/09/28 03:31:31;;;;;;;2.00;1.00;;;;;;;9.16;100.00;153711.91;5018425;28;20436;-88
2022/09/28 03:33:58;;;;;;;3.13;1.40;;;;;;;9.15;100.00;153710.66;5001887;28;20562;-88
2022/09/28 03:36:26;;;;;;;2.30;1.10;;;;;;;9.15;100.00;153710.66;5036234;28;20435;-88
2022/09/28 03:38:55;;;;;;;2.20;1.50;;;;;;;9.14;100.00;153706.75;5001476;28;20958;-89
2022/09/28 03:41:23;;;;;;;2.90;1.30;;;;;;;9.16;100.00;153711.91;5017809;28;20456;-88
2022/09/28 03:43:50;;;;;;;3.00;1.40;;;;;;;9.19;100.00;153720.97;5018026;28;20911;-89
2022/09/28 03:46:17;;;;;;;2.70;1.10;;;;;;;9.21;100.00;153724.88;5018154;28;20448;-88
2022/09/28 03:48:48;;;;;;;4.93;1.60;;;;;;;9.19;100.00;153719.69;5017982;28;20424;-88
2022/09/28 03:51:14;;;;;;;2.03;0.90;;;;;;;9.19;100.00;153720.97;5018127;28;20443;-88
2022/09/28 03:53:42;;;;;;;4.23;1.70;;;;;;;9.16;100.00;153713.22;5035536;28;20533;-88
2022/09/28 03:56:12;;;;;;;1.80;1.43;;;;;;;9.21;100.00;153723.59;5001568;28;20451;-88
2022/09/28 03:58:39;;;;;;;2.23;1.23;;;;;;;9.22;100.00;153726.13;5037991;28;20428;-88
2022/09/28 04:01:08;;;;;;;2.10;1.17;;;;;;;9.21;100.00;153724.88;5037489;28;20546;-88
2022/09/28 04:03:35;;;;;;;2.00;1.40;;;;;;;9.19;100.00;153719.69;5020585;28;20481;-88
2022/09/28 04:06:02;;;;;;;1.73;1.23;;;;;;;9.18;100.00;153717.13;5020666;28;20447;-88
2022/09/28 04:08:29;;;;;;;4.03;1.10;;;;;;;9.18;100.00;153718.41;5054881;28;20435;-88
2022/09/28 04:10:57;;;;;;;3.67;1.40;;;;;;;9.18;100.00;153717.13;5020725;28;20803;-88
2022/09/28 04:13:24;;;;;;;3.30;1.27;;;;;;;9.16;100.00;153713.22;5055581;28;20983;-88
2022/09/28 04:15:55;;;;;;;2.80;1.43;;;;;;;9.13;100.00;153705.44;5021259;28;20794;-89
2022/09/28 04:18:22;;;;;;;1.43;1.03;;;;;;;9.14;100.00;153706.75;5037627;28;20435;-89
2022/09/28 04:21:14;;;;;;;2.87;1.60;;;;;;;9.09;100.00;153695.13;5029466;28;20569;-89
2022/09/28 04:23:56;;;;;;;3.13;1.30;;;;;;;9.10;100.00;153697.72;5038123;28;20462;-89
2022/09/28 04:26:26;;;;;;;2.13;1.20;;;;;;;9.10;100.00;153696.41;5037292;28;20461;-89
2022/09/28 04:31:38;;;;;;;8.03;1.47;;;;;;;9.07;100.00;153688.66;5037495;28;20446;-89
2022/09/28 04:34:05;;;;;;;2.37;0.83;;;;;;;9.06;100.00;153687.34;5020905;28;20553;-89
2022/09/28 04:36:32;;;;;;;1.93;0.70;;;;;;;9.06;100.00;153687.34;5020832;28;21290;-89
2022/09/28 04:38:59;;;;;;;1.97;1.07;;;;;;;9.02;100.00;153677.03;5013377;28;20472;-88
2022/09/28 04:41:29;;;;;;;1.37;0.87;;;;;;;9.01;100.00;153674.44;5017243;28;20454;-88
2022/09/28 04:43:56;;;;;;;3.30;1.20;;;;;;;9.00;100.00;153671.81;5017428;28;20459;-88
2022/09/28 04:46:25;;;;;;;1.63;0.60;;;;;;;8.97;100.00;153662.81;5018314;28;20886;-89
2022/09/28 04:49:12;;;;;;;1.00;0.60;;;;;;;8.96;100.00;153661.50;5021366;28;20949;-89
2022/09/28 04:51:52;;;;;;;1.43;0.60;;;;;;;8.92;100.00;153651.13;5017619;28;20806;-89
2022/09/28 04:54:19;;;;;;;1.20;0.57;;;;;;;8.93;100.00;153653.72;5034947;28;20863;-88
2022/09/28 04:56:47;;;;;;;1.70;0.90;;;;;;;8.93;100.00;153653.72;5035228;28;20431;-89
2022/09/28 04:59:14;;;;;;;1.20;0.90;;;;;;;8.90;100.00;153645.97;5017040;28;20868;-89
2022/09/28 05:01:42;;;;;;;1.10;0.60;;;;;;;8.87;100.00;153636.94;5036789;28;20464;-75
2022/09/28 05:04:32;;;;;;;0.90;0.70;;;;;;;8.87;100.00;153638.22;5029395;28;20452;-74
2022/09/28 05:07:17;;;;;;;1.33;0.77;;;;;;;8.82;100.00;153623.97;5019132;28;20456;-75
2022/09/28 05:09:44;;;;;;;1.47;0.80;;;;;;;8.84;100.00;153629.19;5037510;28;20506;-74
2022/09/28 05:12:12;;;;;;;1.20;0.67;;;;;;;8.79;100.00;153616.25;5021590;28;20458;-74
2022/09/28 05:14:39;;;;;;;1.47;0.50;;;;;;;8.81;100.00;153622.72;5005591;28;20463;-74
2022/09/28 05:17:05;;;;;;;1.50;0.90;;;;;;;8.80;100.00;153618.81;5039143;28;20443;-73
2022/09/28 05:19:39;;;;;;;1.40;0.77;;;;;;;8.78;100.00;153614.97;5002920;28;20454;-73
2022/09/28 05:22:10;;;;;;;1.73;0.83;;;;;;;8.78;100.00;153613.66;5038270;28;20454;-73
2022/09/28 05:24:40;;;;;;;1.30;0.70;;;;;;;8.80;100.00;153618.81;5020045;28;20443;-73
2022/09/28 05:27:07;;;;;;;1.07;0.60;;;;;;;8.75;100.00;153605.91;5004636;28;20459;-73
2022/09/28 05:29:35;;;;;;;1.47;1.00;;;;;;;8.75;100.00;153607.19;5020359;28;20531;-75
2022/09/28 05:32:21;;;;;;;1.10;0.60;;;;;;;8.74;100.00;153603.28;5021864;28;20545;-75
2022/09/28 05:35:07;;;;;;;3.67;1.10;;;;;;;8.74;100.00;153604.59;5038870;28;20553;-75
2022/09/28 05:37:41;;;;;;;1.50;0.90;;;;;;;8.71;100.00;153595.56;5020688;28;20475;-75
2022/09/28 05:40:08;;;;;;;1.93;0.90;;;;;;;8.71;100.00;153595.56;5013327;28;20526;-75
2022/09/28 05:42:35;;;;;;;1.20;0.60;;;;;;;8.70;100.00;153594.28;5017619;28;20463;-75
2022/09/28 05:45:05;;;;;;;1.10;0.80;;;;;;;8.70;100.00;153592.97;5002697;28;20463;-73
2022/09/28 05:47:36;;;;;;;1.03;0.67;;;;;;;8.71;100.00;153596.81;5003582;28;20799;-75
2022/09/28 05:50:10;;;;;;;1.70;1.20;;;;;;;8.67;100.00;153585.22;5021815;28;20517;-75
2022/09/28 05:52:37;;;;;;;1.90;1.47;;;;;;;8.66;100.00;153582.66;5020643;28;20448;-75
2022/09/28 05:55:05;;;;;;;1.97;1.30;;;;;;;8.67;100.00;153586.50;5018052;28;20566;-75
2022/09/28 05:57:34;;;;;;;2.17;1.13;;;;;;;8.67;100.00;153585.22;5022312;28;20969;-75
2022/09/28 06:00:04;;;;;;;2.47;0.87;;;;;;;8.68;100.00;153587.81;5005623;28;20873;-73
2022/09/28 06:02:39;;;;;;;1.77;1.27;;;;;;;8.68;100.00;153587.81;5039108;28;20550;-73
2022/09/28 06:05:07;;;;;;;2.00;0.97;;;;;;;8.68;100.00;153589.13;5003688;28;20495;-73
2022/09/28 06:07:34;;;;;;;2.80;1.13;;;;;;;8.69;100.00;153590.38;5003951;28;20472;-73
2022/09/28 06:10:00;;;;;;;1.23;0.80;;;;;;;8.66;100.00;153582.66;5020399;28;20447;-74
2022/09/28 06:12:41;;;;;;;2.00;1.10;;;;;;;8.70;100.00;153592.97;5006468;28;20486;-73
2022/09/28 06:15:14;;;;;;;1.33;1.03;;;;;;;8.71;100.00;153596.81;5017768;28;20474;-75
2022/09/28 06:17:42;;;;;;;1.50;0.77;;;;;;;8.71;100.00;153595.56;5005612;28;21047;-73
2022/09/28 06:20:29;;;;;;;1.43;1.13;;;;;;;8.69;100.00;153591.66;5039089;28;20454;-73
2022/09/28 06:23:06;;;;;;;2.57;1.50;;;;;;;8.72;100.00;153598.13;5010794;28;20455;-73
2022/09/28 06:25:33;;;;;;;1.53;1.07;;;;;;;8.74;100.00;153603.28;5005504;28;20597;-73
2022/09/28 06:28:01;;;;;;;2.50;1.37;;;;;;;8.78;100.00;153614.97;5004187;28;20454;-73
2022/09/28 06:30:36;;;;;;;2.47;1.20;;;;;;;8.76;100.00;153608.50;5030758;28;20855;-74
2022/09/28 06:33:03;;;;;;;2.50;1.30;;;;;;;8.76;100.00;153609.81;5001316;28;20548;-73
2022/09/28 06:35:31;;;;;;;1.70;1.17;;;;;;;8.80;100.00;153620.13;5004381;28;20841;-73
2022/09/28 06:37:59;;;;;;;2.40;1.30;;;;;;;8.82;100.00;153623.97;5021481;28;20526;-73
2022/09/28 06:40:26;;;;;;;2.03;1.60;;;;;;;8.84;100.00;153630.44;5034325;28;20550;-73
2022/09/28 06:42:57;;;;;;;2.77;1.57;;;;;;;8.85;100.00;153633.03;5010828;28;20447;-72
2022/09/28 06:45:50;;;;;;;2.30;1.50;;;;;;;8.89;100.00;153642.13;5019749;28;20474;-75
2022/09/28 06:48:44;;;;;;;1.50;1.30;;;;;;;8.89;100.00;153643.41;5001670;28;20866;-75
2022/09/28 06:51:14;;;;;;;1.43;1.23;;;;;;;8.89;100.00;153642.13;5020647;28;20455;-74
2022/09/28 06:53:55;;;;;;;3.27;1.60;;;;;;;8.93;100.00;153653.72;5022418;28;20521;-75
2022/09/28 06:56:44;;;;;;;1.80;1.30;;;;;;;8.95;100.00;153658.91;5042571;28;20486;-74
2022/09/28 06:59:11;;;;;;;2.00;1.63;;;;;;;8.96;100.00;153661.50;5022978;28;20965;-74
2022/09/28 07:01:39;;;;;;;3.83;1.97;;;;;;;9.00;100.00;153670.56;5007209;28;20455;-75
2022/09/28 07:04:26;;;;;;;2.10;1.70;;;;;;;9.02;100.00;153675.72;5037071;28;20458;-75
2022/09/28 07:07:13;;;;;;;2.93;2.20;;;;;;;8.98;100.00;153665.34;5014702;28;20463;-75
2022/09/28 07:10:06;;;;;;;3.40;1.77;;;;;;;8.99;100.00;153667.97;5016603;28;20763;-75
2022/09/28 07:13:04;;;;;;;2.57;1.97;;;;;;;8.97;100.00;153662.81;5007776;28;20969;-75
2022/09/28 07:15:35;;;;;;;3.10;1.70;;;;;;;8.97;100.00;153662.81;5036422;28;20829;-75
2022/09/28 07:18:05;;;;;;;2.77;1.90;;;;;;;8.99;100.00;153667.97;5020070;28;20531;-75
2022/09/28 07:20:32;;;;;;;5.27;2.23;;;;;;;9.01;100.00;153673.13;5029683;28;20443;-75
2022/09/28 07:23:01;;;;;;;5.07;2.57;;;;;;;9.03;100.00;153678.28;5012133;28;20487;-75
2022/09/28 07:25:31;;;;;;;4.30;2.00;;;;;;;9.02;100.00;153675.72;5015891;28;20833;-75
2022/09/28 07:28:21;;;;;;;2.27;2.00;;;;;;;9.06;100.00;153687.34;5033362;28;20458;-75
2022/09/28 07:31:14;;;;;;;3.70;2.43;;;;;;;9.05;100.00;153683.50;4990261;28;20965;-75
2022/09/28 07:34:03;;;;;;;3.33;2.23;;;;;;;9.09;100.00;153693.81;5006344;28;20543;-75
2022/09/28 07:36:37;;;;;;;4.03;1.87;;;;;;;9.10;100.00;153696.41;5023063;28;20451;-75
2022/09/28 07:39:05;;;;;;;3.63;2.40;;;;;;;9.12;100.00;153701.59;5004029;28;21050;-75
2022/09/28 07:41:31;;;;;;;7.57;3.37;;;;;;;9.14;100.00;153708.03;5023391;28;21021;-75
2022/09/28 07:44:04;;;;;;;4.23;1.97;;;;;;;9.19;100.00;153720.97;5006376;28;20490;-75
2022/09/28 07:46:32;;;;;;;4.90;2.10;;;;;;;9.19;100.00;153719.69;5020882;28;20454;-75
2022/09/28 07:49:05;;;;;;;4.07;2.30;;;;;;;9.26;100.00;153737.81;5007954;28;20467;-74
2022/09/28 07:51:34;;;;;;;4.13;2.10;;;;;;;9.26;100.00;153737.81;5005534;28;20555;-75
2022/09/28 07:54:20;;;;;;;3.03;2.00;;;;;;;9.28;100.00;153741.69;5035060;28;20475;-75
2022/09/28 07:56:52;;;;;;;2.47;1.90;;;;;;;9.33;100.00;153755.91;5021122;28;20456;-75
2022/09/28 07:59:30;;;;;;;2.80;1.90;;;;;;;9.37;100.00;153766.22;5015511;28;20755;-75
2022/09/28 08:02:19;;;;;;;4.90;1.80;;;;;;;9.44;100.00;153784.38;5033379;28;20762;-75
2022/09/28 08:04:47;;;;;;;3.50;2.37;;;;;;;9.44;100.00;153784.38;5000108;28;20938;-75
2022/09/28 08:07:15;;;;;;;2.00;1.80;;;;;;;9.52;100.00;153805.06;5021997;28;20482;-75
2022/09/28 08:09:42;;;;;;;3.70;2.13;;;;;;;9.62;100.00;153830.94;5002214;28;20448;-75
2022/09/28 08:12:27;;;;;;;3.23;1.63;;;;;;;9.65;100.00;153838.72;5029135;28;20560;-75
2022/09/28 08:15:20;;;;;;;2.97;2.00;;;;;;;9.74;100.00;153860.72;5030082;28;20862;-75
2022/09/28 08:17:57;;;;;;;2.00;1.80;;;;;;;9.75;100.00;153864.56;5014574;28;20547;-75
2022/09/28 08:23:10;;;;;;;3.43;2.30;;;;;;;9.81;100.00;153878.81;5027921;28;20466;-75
2022/09/28 08:25:38;;;;;;;2.50;2.00;;;;;;;9.82;100.00;153882.69;4999442;28;20876;-75
2022/09/28 08:28:06;;;;;;;3.90;2.67;;;;;;;9.82;100.00;153882.69;5016058;28;20462;-75
2022/09/28 08:30:37;;;;;;;3.50;2.40;;;;;;;9.80;100.00;153876.22;5023380;28;20455;-75
2022/09/28 08:33:40;;;;;;;3.40;2.47;;;;;;;9.88;100.00;153895.59;4961939;28;20536;-75
2022/09/28 08:36:27;;;;;;;3.00;2.70;;;;;;;9.92;100.00;153907.28;5018500;28;20882;-75
2022/09/28 08:39:13;;;;;;;2.03;1.70;;;;;;;10.00;100.00;153926.69;5025673;28;20443;-75
2022/09/28 08:42:07;;;;;;;2.90;2.50;;;;;;;9.97;100.00;153918.91;5016343;28;20498;-75
2022/09/28 08:45:06;;;;;;;2.63;2.20;;;;;;;10.05;100.00;153940.94;5016537;28;20443;-75
2022/09/28 08:51:13;;;;;;;3.47;2.47;;;;;;;10.30;100.00;154005.69;5005562;28;20452;-75
2022/09/28 08:53:52;;;;;;;4.00;2.57;;;;;;;10.36;100.00;154021.22;5033285;28;20506;-75
2022/09/28 08:56:29;;;;;;;4.40;2.53;;;;;;;10.44;100.00;154040.63;5034341;28;20882;-75
2022/09/28 08:58:59;;;;;;;3.10;2.57;;;;;;;10.43;100.00;154036.78;5004742;28;20460;-75
2022/09/28 09:01:28;;;;;;;2.07;1.87;;;;;;;10.47;100.00;154047.13;5024723;28;20508;-75
2022/09/28 09:03:56;;;;;;;5.80;2.53;;;;;;;10.49;100.00;154053.59;5034472;28;20454;-75
2022/09/28 09:06:56;;;;;;;3.13;2.27;;;;;;;10.40;100.00;154030.31;5024855;28;20919;-75
2022/09/28 09:09:41;;;;;;;2.50;2.30;;;;;;;10.40;100.00;154030.31;5014992;28;20456;-75
2022/09/28 09:12:14;;;;;;;3.50;2.10;;;;;;;10.48;100.00;154051.03;5035354;28;20966;-75
2022/09/28 09:15:02;;;;;;;2.43;2.23;;;;;;;10.52;100.00;154061.34;5011231;28;20532;-75
2022/09/28 09:17:40;;;;;;;8.23;2.30;;;;;;;10.54;100.00;154065.28;5013971;28;20509;-75
2022/09/28 09:20:20;;;;;;;5.07;2.50;;;;;;;10.63;100.00;154089.84;5025300;28;20821;-75
2022/09/28 09:23:01;;;;;;;3.17;2.20;;;;;;;10.76;100.00;154122.22;5033049;28;20455;-75
2022/09/28 09:25:40;;;;;;;2.90;2.10;;;;;;;10.78;100.00;154127.38;4998087;28;20950;-75
2022/09/28 09:28:27;;;;;;;4.03;2.23;;;;;;;10.67;100.00;154100.19;5013941;28;20498;-75
2022/09/28 09:31:02;;;;;;;3.73;2.40;;;;;;;10.65;100.00;154095.03;5013278;28;20888;-75
2022/09/28 09:33:45;;;;;;;2.73;1.73;;;;;;;10.74;100.00;154118.34;5014316;28;21030;-76
2022/09/28 09:36:58;;;;;;;4.27;2.50;;;;;;;10.78;100.00;154128.69;5014884;28;20473;-75
2022/09/28 09:39:58;;;;;;;3.50;2.33;;;;;;;10.68;100.00;154102.78;4999561;28;20458;-75
2022/09/28 09:43:06;;;;;;;4.33;2.90;;;;;;;10.64;100.00;154092.47;5003217;28;20463;-75
2022/09/28 09:46:05;;;;;;;2.50;2.10;;;;;;;10.65;100.00;154095.03;5016676;28;20437;-76
2022/09/28 09:48:52;;;;;;;3.53;2.47;;;;;;;10.73;100.00;154114.44;5031651;28;20457;-75
2022/09/28 09:51:24;;;;;;;5.00;2.60;;;;;;;10.70;100.00;154107.97;5048520;28;20773;-76
2022/09/28 09:53:58;;;;;;;4.97;2.70;;;;;;;10.81;100.00;154135.16;5040935;28;20455;-76
2022/09/28 09:56:33;;;;;;;3.37;2.73;;;;;;;10.90;100.00;154158.50;5021231;28;20617;-75
2022/09/28 09:59:14;;;;;;;4.80;2.13;;;;;;;10.89;100.00;154157.19;5018343;28;20459;-75
2022/09/28 10:02:23;;;;;;;3.40;2.00;;;;;;;10.96;100.00;154175.31;4986854;28;20883;-75
2022/09/28 10:04:59;;;;;;;3.00;2.37;;;;;;;11.07;100.00;154201.25;5001468;28;20439;-76
2022/09/28 10:07:38;;;;;;;2.70;2.50;;;;;;;11.11;100.00;154212.88;5000587;28;20455;-75
2022/09/28 10:10:12;;;;;;;6.80;2.50;;;;;;;11.17;100.00;154227.16;5017897;28;20444;-76
2022/09/28 10:12:49;;;;;;;4.63;3.10;;;;;;;11.24;100.00;154245.25;5042255;28;20948;-76
2022/09/28 10:15:23;;;;;;;5.20;2.73;;;;;;;11.28;100.00;154256.91;5012917;28;20472;-76
2022/09/28 10:18:11;;;;;;;4.90;3.33;;;;;;;11.22;100.00;154240.09;5014132;28;20455;-76
2022/09/28 10:20:56;;;;;;;5.07;2.83;;;;;;;11.27;100.00;154253.03;5013498;28;20439;-76
2022/09/28 10:23:38;;;;;;;4.50;2.63;;;;;;;11.28;100.00;154256.91;5031230;28;20827;-76
2022/09/28 10:26:08;;;;;;;2.80;2.33;;;;;;;11.43;100.00;154294.50;5016555;28;20809;-76
2022/09/28 10:28:41;;;;;;;3.57;2.60;;;;;;;11.43;100.00;154294.50;5042453;28;20454;-76
2022/09/28 10:31:41;;;;;;;3.80;2.40;;;;;;;11.39;100.00;154284.13;5016507;28;20438;-76
2022/09/28 10:34:31;;;;;;;3.40;2.40;;;;;;;11.38;100.00;154282.84;5016223;28;20447;-76
2022/09/28 10:37:09;;;;;;;3.53;2.80;;;;;;;11.48;100.00;154307.47;5028646;28;20502;-76
2022/09/28 10:40:04;;;;;;;3.03;2.73;;;;;;;11.53;100.00;154320.41;5014937;28;20913;-75
2022/09/28 10:42:35;;;;;;;4.30;2.77;;;;;;;11.51;100.00;154315.25;5009676;28;20484;-76
2022/09/28 10:45:22;;;;;;;3.50;2.50;;;;;;;11.56;100.00;154328.19;5018060;28;20722;-76
2022/09/28 10:47:50;;;;;;;2.70;2.10;;;;;;;11.53;100.00;154320.41;5017553;28;20454;-76
2022/09/28 10:50:21;;;;;;;3.10;2.63;;;;;;;11.58;100.00;154334.66;5027553;28;20450;-76
2022/09/28 10:52:48;;;;;;;3.13;2.70;;;;;;;11.69;100.00;154361.94;5022914;28;20449;-76
2022/09/28 10:55:56;;;;;;;3.20;2.23;;;;;;;11.82;100.00;154395.63;5022151;28;20469;-76
2022/09/28 10:58:27;;;;;;;3.27;2.40;;;;;;;11.84;100.00;154399.50;5016544;28;20542;-76
2022/09/28 11:01:00;;;;;;;5.73;2.83;;;;;;;11.84;100.00;154399.50;5029859;28;20865;-76
2022/09/28 11:03:30;;;;;;;2.83;2.40;;;;;;;11.86;100.00;154405.97;5000434;28;20883;-75
2022/09/28 11:06:03;;;;;;;3.37;2.47;;;;;;;11.80;100.00;154389.16;5003389;28;20479;-76
2022/09/28 11:08:36;;;;;;;4.43;2.50;;;;;;;11.77;99.31;154382.66;4995281;28;21132;-74
2022/09/28 11:11:08;;;;;;;2.63;2.20;;;;;;;11.84;100.00;154399.50;4997594;28;20828;-76
2022/09/28 11:13:43;;;;;;;2.13;1.90;;;;;;;11.82;100.00;154394.31;5006792;28;20463;-75
2022/09/28 11:16:21;;;;;;;2.60;2.40;;;;;;;11.85;100.00;154402.09;5022202;28;20473;-76
2022/09/28 11:18:49;;;;;;;3.87;2.50;;;;;;;11.87;100.00;154408.56;5009599;28;20462;-76
2022/09/28 11:21:18;;;;;;;4.73;2.40;;;;;;;11.91;100.00;154417.66;5006224;28;20536;-76
2022/09/28 11:24:05;;;;;;;3.20;2.07;;;;;;;11.86;97.60;154405.97;5003377;28;20558;-73
2022/09/28 11:26:36;;;;;;;4.07;3.60;;;;;;;11.92;100.00;154421.53;5017037;28;20501;-73
2022/09/28 11:29:03;;;;;;;2.17;1.60;;;;;;;11.93;100.00;154424.16;5014935;28;20443;-76
2022/09/28 11:31:42;;;;;;;4.30;2.50;;;;;;;12.02;100.00;154446.19;5031598;28;20458;-73
2022/09/28 11:34:21;;;;;;;4.33;2.50;;;;;;;11.98;99.39;154437.09;5012555;28;20463;-76
2022/09/28 11:37:23;;;;;;;3.00;2.20;;;;;;;12.04;100.00;154452.69;5004104;28;20560;-76
2022/09/28 11:40:09;;;;;;;3.20;1.63;;;;;;;12.01;94.96;154443.59;5001461;28;20881;-84
2022/09/28 11:42:48;;;;;;;4.53;2.57;;;;;;;11.97;97.43;154434.50;5017111;28;20443;-85
2022/09/28 11:45:32;;;;;;;3.70;2.50;;;;;;;11.99;95.96;154439.66;5016256;28;20505;-74
2022/09/28 11:48:01;;;;;;;2.90;1.87;;;;;;;12.01;95.18;154444.91;5023483;28;20456;-75
2022/09/28 11:50:40;;;;;;;3.00;1.90;;;;;;;12.16;97.78;154482.47;5022787;28;20516;-74
2022/09/28 11:53:16;;;;;;;4.63;1.80;;;;;;;12.14;93.67;154477.28;5022792;28;20454;-74
2022/09/28 11:55:47;;;;;;;4.33;1.90;;;;;;;12.14;96.64;154477.28;5012710;28;20903;-74
2022/09/28 11:58:18;;;;;;;2.13;1.80;;;;;;;12.13;92.76;154475.97;5029434;28;20455;-74
2022/09/28 12:00:49;;;;;;;4.93;1.97;;;;;;;12.16;95.65;154483.78;5030957;28;20444;-74
2022/09/28 12:03:21;;;;;;;3.20;1.87;;;;;;;12.12;91.61;154473.41;5020101;28;20471;-74
2022/09/28 12:05:52;;;;;;;2.80;1.70;;;;;;;12.04;94.56;154451.38;5022011;28;20475;-74